Time;durP1;ratioP1;P1;durP2;ratioP2;P2;SDS_P1;SDS_P2;PMS_P1;PMS_P2;Temp;Humidity;BMP_temperature;BMP_pressure;BME280_temperature;BME280_humidity;BME280_pressure;Samples;Min_cycle;Max_cycle;Signal;HPM_P1;HPM_P2
2022/06/16 00:00:39;;;;;;;5.70;4.13;;;;;;;17.23;100.00;94890.44;5073968;28;20757;-61
2022/06/16 00:03:07;;;;;;;4.57;4.10;;;;;;;17.14;100.00;94893.19;5073499;28;20192;-65
2022/06/16 00:05:34;;;;;;;4.60;4.07;;;;;;;17.31;100.00;94894.78;5073950;28;20638;-63
2022/06/16 00:08:05;;;;;;;6.65;4.68;;;;;;;17.26;100.00;94886.75;5055326;28;20177;-62
2022/06/16 00:10:32;;;;;;;6.63;4.40;;;;;;;17.33;100.00;94885.91;5055602;28;20271;-63
2022/06/16 00:12:57;;;;;;;4.65;4.15;;;;;;;17.36;100.00;94888.16;5073313;28;20624;-61
2022/06/16 00:15:28;;;;;;;4.43;4.03;;;;;;;17.34;98.43;94894.44;5073523;28;20287;-62
2022/06/16 00:17:54;;;;;;;9.52;4.40;;;;;;;17.32;98.83;94898.94;5073419;28;20192;-60
2022/06/16 00:20:20;;;;;;;4.43;4.05;;;;;;;17.17;99.75;94890.31;5055563;28;20220;-60
2022/06/16 00:22:45;;;;;;;6.45;3.92;;;;;;;17.03;100.00;94890.97;5073354;28;20169;-62
2022/06/16 00:25:11;;;;;;;6.07;4.20;;;;;;;16.98;100.00;94891.47;5073517;28;20193;-63
2022/06/16 00:27:38;;;;;;;4.40;4.00;;;;;;;16.84;100.00;94896.44;5073474;28;20170;-63
2022/06/16 00:30:05;;;;;;;4.57;4.00;;;;;;;16.93;100.00;94888.56;5073256;28;20200;-63
2022/06/16 00:32:31;;;;;;;4.90;4.03;;;;;;;16.98;100.00;94900.94;5072815;28;20227;-63
2022/06/16 00:34:57;;;;;;;6.85;3.97;;;;;;;16.93;100.00;94893.69;5071617;28;20201;-59
2022/06/16 00:37:23;;;;;;;4.68;4.00;;;;;;;17.00;100.00;94896.44;5055023;28;20173;-59
2022/06/16 00:39:48;;;;;;;5.60;3.75;;;;;;;16.91;100.00;94885.34;5072794;28;20582;-60
2022/06/16 00:42:22;;;;;;;4.45;4.03;;;;;;;16.98;100.00;94895.78;5054223;28;20235;-60
2022/06/16 00:44:51;;;;;;;4.82;3.75;;;;;;;17.00;100.00;94897.25;5072941;28;20209;-63
2022/06/16 00:47:21;;;;;;;7.28;4.97;;;;;;;17.08;100.00;94893.84;5072778;28;20274;-63
2022/06/16 00:49:49;;;;;;;5.30;4.80;;;;;;;17.03;100.00;94898.69;5073062;28;20665;-63
2022/06/16 00:52:23;;;;;;;6.78;4.28;;;;;;;16.94;100.00;94891.94;5072519;28;20168;-60
2022/06/16 00:55:26;;;;;;;5.30;4.15;;;;;;;16.90;100.00;94883.78;5072839;28;20568;-61
2022/06/16 00:57:52;;;;;;;5.30;4.18;;;;;;;16.77;100.00;94884.25;5022113;28;20271;-62
2022/06/16 01:02:47;;;;;;;10.35;4.65;;;;;;;16.76;100.00;94880.09;5072094;28;20161;-60
2022/06/16 01:05:12;;;;;;;4.72;4.05;;;;;;;16.85;100.00;94880.09;5072716;28;20207;-60
2022/06/16 01:07:42;;;;;;;8.82;4.15;;;;;;;16.78;100.00;94875.59;5072160;28;20551;-64
2022/06/16 01:10:09;;;;;;;4.45;3.53;;;;;;;16.66;100.00;94878.66;5073543;28;20212;-64
2022/06/16 01:16:03;;;;;;;6.88;4.65;;;;;;;16.65;100.00;94882.16;5072850;28;20214;-60
2022/06/16 01:18:41;;;;;;;5.28;4.78;;;;;;;16.84;100.00;94873.34;5053999;28;20183;-62
2022/06/16 01:21:25;;;;;;;5.82;4.40;;;;;;;16.74;100.00;94879.47;5071958;28;20207;-60
2022/06/16 01:24:09;;;;;;;4.95;4.30;;;;;;;16.80;100.00;94875.44;5072157;28;20215;-63
2022/06/16 01:26:45;;;;;;;8.35;4.72;;;;;;;16.82;100.00;94876.06;5072304;28;20560;-61
2022/06/16 01:29:10;;;;;;;5.97;4.38;;;;;;;16.81;100.00;94877.03;5071980;28;20200;-63
2022/06/16 01:31:56;;;;;;;6.22;4.10;;;;;;;16.81;100.00;94876.25;5071652;28;20181;-63
2022/06/16 01:34:37;;;;;;;7.97;4.53;;;;;;;16.90;100.00;94868.34;5053569;28;20208;-59
2022/06/16 01:37:10;;;;;;;6.40;4.57;;;;;;;16.90;100.00;94863.22;5071794;28;20252;-63
2022/06/16 01:39:38;;;;;;;5.53;4.60;;;;;;;16.97;100.00;94868.53;5070207;28;20754;-58
2022/06/16 01:42:12;;;;;;;5.93;4.20;;;;;;;16.93;100.00;94862.09;5071418;28;20177;-59
2022/06/16 01:45:01;;;;;;;7.88;4.80;;;;;;;16.92;100.00;94860.47;5071987;28;20208;-59
2022/06/16 01:47:29;;;;;;;5.82;5.25;;;;;;;16.98;100.00;94850.38;5045633;28;20689;-62
2022/06/16 01:50:03;;;;;;;5.97;5.05;;;;;;;17.00;100.00;94858.72;5072210;28;20196;-63
2022/06/16 01:52:39;;;;;;;7.72;4.93;;;;;;;16.89;100.00;94853.13;5071911;28;20181;-59
2022/06/16 01:55:10;;;;;;;7.72;5.05;;;;;;;16.90;100.00;94852.13;5071658;28;20212;-63
2022/06/16 01:58:04;;;;;;;6.45;5.82;;;;;;;17.05;100.00;94860.78;5071400;28;20183;-63
2022/06/16 02:00:32;;;;;;;11.55;7.25;;;;;;;17.02;100.00;94850.84;5053796;28;20217;-59
2022/06/16 02:03:01;;;;;;;15.85;10.40;;;;;;;17.08;100.00;94853.56;5071292;28;20180;-59
2022/06/16 02:05:42;;;;;;;9.13;7.38;;;;;;;17.02;100.00;94853.41;5072055;28;20258;-63
2022/06/16 02:08:15;;;;;;;9.13;5.90;;;;;;;17.10;100.00;94850.81;5071351;28;20173;-59
2022/06/16 02:10:45;;;;;;;7.47;6.38;;;;;;;16.97;100.00;94853.88;5071843;28;20205;-60
2022/06/16 02:13:15;;;;;;;7.32;6.32;;;;;;;16.76;100.00;94857.00;5071352;28;20646;-62
2022/06/16 02:15:51;;;;;;;11.00;6.72;;;;;;;16.82;100.00;94854.72;5072159;28;20205;-60
2022/06/16 02:18:27;;;;;;;12.20;7.38;;;;;;;16.75;100.00;94860.50;5071347;28;20176;-62
2022/06/16 02:20:58;;;;;;;9.63;6.40;;;;;;;16.44;100.00;94862.06;5071506;28;20226;-62
2022/06/16 02:23:23;;;;;;;7.63;5.85;;;;;;;16.34;100.00;94866.56;5071146;28;20168;-62
2022/06/16 02:25:58;;;;;;;7.40;6.70;;;;;;;16.42;100.00;94874.25;5071781;28;20602;-62
2022/06/16 02:28:25;;;;;;;11.52;6.70;;;;;;;16.37;100.00;94866.25;5071468;28;20262;-63
2022/06/16 02:31:03;;;;;;;7.43;6.70;;;;;;;16.51;100.00;94886.19;5071355;28;20300;-63
2022/06/16 02:33:53;;;;;;;7.75;6.53;;;;;;;16.65;100.00;94880.41;5071045;28;20187;-62
2022/06/16 02:36:37;;;;;;;8.88;6.07;;;;;;;16.62;100.00;94877.38;5053103;28;20771;-59
2022/06/16 02:39:19;;;;;;;7.53;6.18;;;;;;;16.67;100.00;94877.69;5071161;28;20181;-62
2022/06/16 02:41:51;;;;;;;8.10;7.30;;;;;;;16.47;100.00;94879.75;5071015;28;20199;-62
2022/06/16 02:44:46;;;;;;;12.80;6.85;;;;;;;16.55;100.00;94884.91;5071479;28;20645;-63
2022/06/16 02:47:18;;;;;;;9.23;7.15;;;;;;;16.44;100.00;94886.97;5070975;28;20196;-63
2022/06/16 02:50:04;;;;;;;7.53;6.20;;;;;;;16.20;100.00;94884.38;5071353;28;20602;-62
2022/06/16 02:52:46;;;;;;;9.63;7.40;;;;;;;16.09;100.00;94885.47;5069693;28;20209;-66
2022/06/16 02:55:23;;;;;;;7.18;6.45;;;;;;;16.20;100.00;94890.28;5071295;28;20201;-60
2022/06/16 02:57:54;;;;;;;12.25;6.63;;;;;;;16.20;100.00;94900.53;5070874;28;20192;-60
2022/06/16 03:00:25;;;;;;;11.38;9.98;;;;;;;16.10;100.00;94902.44;5071217;28;20219;-62
2022/06/16 03:02:51;;;;;;;12.07;6.45;;;;;;;16.12;100.00;94908.22;5070950;28;20176;-64
2022/06/16 03:05:17;;;;;;;8.63;6.25;;;;;;;16.23;100.00;94897.69;5071197;28;20667;-62
2022/06/16 03:07:44;;;;;;;10.40;6.72;;;;;;;16.28;100.00;94902.34;5074354;28;20525;-61
2022/06/16 03:10:13;;;;;;;9.48;6.53;;;;;;;16.35;100.00;94901.53;5074906;28;20201;-61
2022/06/16 03:12:38;;;;;;;9.68;6.93;;;;;;;16.25;100.00;94902.63;5074224;28;20189;-62
2022/06/16 03:15:04;;;;;;;7.05;6.35;;;;;;;16.24;100.00;94901.06;5074585;28;20196;-63
2022/06/16 03:17:31;;;;;;;9.43;6.38;;;;;;;16.50;100.00;94902.53;5074220;28;20189;-63
2022/06/16 03:20:00;;;;;;;9.52;6.93;;;;;;;16.54;100.00;94908.94;5056305;28;20208;-63
2022/06/16 03:22:25;;;;;;;9.85;6.22;;;;;;;16.87;100.00;94909.75;5056363;28;20177;-64
2022/06/16 03:24:50;;;;;;;8.27;6.60;;;;;;;16.86;100.00;94910.75;5074396;28;20192;-64
2022/06/16 03:27:17;;;;;;;10.07;7.78;;;;;;;16.76;100.00;94908.34;5056226;28;20181;-64
2022/06/16 03:29:42;;;;;;;7.55;6.90;;;;;;;16.28;100.00;94895.41;5074303;28;20215;-64
2022/06/16 03:32:08;;;;;;;9.35;7.70;;;;;;;16.40;100.00;94891.59;5074092;28;20184;-64
2022/06/16 03:34:34;;;;;;;14.98;7.85;;;;;;;16.14;100.00;94896.03;5074401;28;20208;-59
2022/06/16 03:37:00;;;;;;;8.93;7.88;;;;;;;16.00;100.00;94898.44;5074151;28;20181;-63
2022/06/16 03:39:25;;;;;;;10.90;7.72;;;;;;;16.07;100.00;94887.38;5074064;28;20200;-65
2022/06/16 03:41:51;;;;;;;9.07;7.78;;;;;;;16.14;100.00;94893.47;5073762;28;20686;-62
2022/06/16 03:44:17;;;;;;;10.00;7.85;;;;;;;16.31;100.00;94897.69;5074097;28;20271;-62
2022/06/16 03:46:42;;;;;;;10.55;7.35;;;;;;;16.36;100.00;94892.09;5055792;28;20196;-60
2022/06/16 03:49:08;;;;;;;9.00;6.93;;;;;;;16.46;100.00;94897.88;5073796;28;20303;-60
2022/06/16 03:51:34;;;;;;;8.85;7.68;;;;;;;16.50;100.00;94897.41;5073946;28;20176;-60
2022/06/16 03:54:00;;;;;;;7.22;6.38;;;;;;;16.63;100.00;94895.16;5073923;28;20556;-59
2022/06/16 03:56:25;;;;;;;7.45;6.45;;;;;;;16.77;100.00;94899.66;5100105;22;20740;-62
2022/06/16 03:58:53;;;;;;;7.35;6.65;;;;;;;16.88;100.00;94908.81;5093867;28;20204;-63
2022/06/16 04:01:19;;;;;;;6.82;6.13;;;;;;;17.00;100.00;94902.38;5093646;28;20565;-65
2022/06/16 04:04:00;;;;;;;9.05;7.03;;;;;;;17.06;100.00;94901.72;5093848;28;20264;-60
2022/06/16 04:06:30;;;;;;;12.35;7.63;;;;;;;17.10;100.00;94903.00;5093619;28;20255;-63
2022/06/16 04:08:57;;;;;;;9.00;7.28;;;;;;;17.14;100.00;94908.59;5075707;28;20184;-63
2022/06/16 04:11:28;;;;;;;13.90;8.40;;;;;;;17.01;100.00;94903.19;5093544;28;20591;-63
2022/06/16 04:14:01;;;;;;;9.73;7.25;;;;;;;17.15;100.00;94907.66;5093872;28;20241;-63
2022/06/16 04:16:29;;;;;;;9.35;6.82;;;;;;;17.44;100.00;94913.03;5093417;28;20192;-63
2022/06/16 04:18:54;;;;;;;12.90;7.35;;;;;;;17.26;100.00;94902.97;5092489;28;20188;-62
2022/06/16 04:21:20;;;;;;;10.02;7.28;;;;;;;17.41;100.00;94905.69;5093287;28;20200;-63
2022/06/16 04:23:46;;;;;;;9.85;7.22;;;;;;;17.40;100.00;94906.63;5093477;28;20208;-63
2022/06/16 04:26:11;;;;;;;12.93;7.85;;;;;;;17.30;100.00;94899.09;5093312;28;20188;-63
2022/06/16 04:28:37;;;;;;;9.45;7.18;;;;;;;17.30;100.00;94899.09;5093137;28;20185;-63
2022/06/16 04:31:02;;;;;;;12.00;7.43;;;;;;;17.51;100.00;94888.31;5093127;28;20684;-64
2022/06/16 04:33:28;;;;;;;6.43;5.80;;;;;;;17.90;100.00;94878.81;5093231;28;20177;-64
2022/06/16 04:35:54;;;;;;;8.23;7.32;;;;;;;18.53;100.00;94895.81;5074949;28;20214;-65
2022/06/16 04:38:20;;;;;;;14.55;8.60;;;;;;;18.88;100.00;94918.44;5093288;28;20630;-66
2022/06/16 04:40:46;;;;;;;10.10;7.57;;;;;;;18.65;100.00;94918.44;5092708;28;20208;-64
2022/06/16 04:43:14;;;;;;;9.25;7.55;;;;;;;18.78;100.00;94938.47;5092959;28;20549;-64
2022/06/16 04:45:41;;;;;;;14.18;8.23;;;;;;;18.59;100.00;94913.16;5093699;28;20290;-63
2022/06/16 04:48:08;;;;;;;9.93;7.63;;;;;;;18.25;100.00;94908.38;5093127;28;20173;-67
2022/06/16 04:50:34;;;;;;;9.77;7.57;;;;;;;18.57;100.00;94923.66;5093500;28;20204;-64
2022/06/16 04:53:00;;;;;;;10.90;8.27;;;;;;;18.21;100.00;94896.81;5076448;28;20724;-67
2022/06/16 04:55:26;;;;;;;12.80;8.10;;;;;;;18.08;100.00;94901.72;5093775;28;20270;-62
2022/06/16 04:57:54;;;;;;;13.45;9.48;;;;;;;17.95;100.00;94904.84;5092628;28;20544;-64
2022/06/16 05:00:20;;;;;;;14.00;9.18;;;;;;;17.83;100.00;94902.81;5092890;28;20216;-63
2022/06/16 05:02:45;;;;;;;12.95;9.25;;;;;;;17.71;100.00;94904.16;5092845;28;20179;-64
2022/06/16 05:05:11;;;;;;;16.05;8.82;;;;;;;17.72;100.00;94892.88;5092909;28;20216;-65
2022/06/16 05:07:36;;;;;;;11.65;9.65;;;;;;;17.60;100.00;94897.59;5092579;28;20650;-64
2022/06/16 05:10:02;;;;;;;18.75;10.48;;;;;;;17.64;100.00;94906.56;5092799;28;20280;-61
2022/06/16 05:12:28;;;;;;;14.40;9.40;;;;;;;17.40;100.00;94896.34;5092457;28;20626;-61
2022/06/16 05:14:53;;;;;;;15.75;10.00;;;;;;;17.40;100.00;94891.19;5093001;28;20211;-65
2022/06/16 05:17:19;;;;;;;15.13;9.60;;;;;;;17.53;100.00;94897.44;5092428;28;20175;-63
2022/06/16 05:19:44;;;;;;;13.45;10.25;;;;;;;17.52;100.00;94900.19;5074101;28;20617;-63
2022/06/16 05:22:10;;;;;;;13.65;9.77;;;;;;;17.87;100.00;94904.88;5092266;28;20222;-62
2022/06/16 05:24:35;;;;;;;12.40;9.60;;;;;;;17.93;100.00;94893.94;5092571;28;20253;-62
2022/06/16 05:27:03;;;;;;;16.17;10.45;;;;;;;17.75;100.00;94898.50;5092214;28;20726;-62
2022/06/16 05:29:29;;;;;;;16.15;11.43;;;;;;;18.10;100.00;94904.94;5092164;28;20350;-66
2022/06/16 05:31:55;;;;;;;18.23;11.38;;;;;;;18.12;100.00;94906.34;5092167;28;20643;-65
2022/06/16 05:34:21;;;;;;;17.35;12.05;;;;;;;17.94;100.00;94905.81;5073544;28;20751;-65
2022/06/16 05:36:47;;;;;;;14.20;11.13;;;;;;;17.86;100.00;94905.03;5092335;28;20173;-65
2022/06/16 05:39:13;;;;;;;12.35;10.48;;;;;;;17.74;100.00;94894.31;5091815;28;20184;-65
2022/06/16 05:41:39;;;;;;;17.90;11.60;;;;;;;17.69;100.00;94900.94;5091483;28;20551;-65
2022/06/16 05:44:05;;;;;;;15.25;10.70;;;;;;;17.92;100.00;94914.66;5090929;28;20194;-62
2022/06/16 05:46:31;;;;;;;13.50;10.65;;;;;;;17.93;100.00;94913.69;5099462;22;20293;-62
2022/06/16 05:48:56;;;;;;;23.17;11.20;;;;;;;18.02;100.00;94912.66;5092002;28;20184;-65
2022/06/16 05:51:23;;;;;;;14.45;10.65;;;;;;;18.09;100.00;94913.63;5090389;28;20615;-65
2022/06/16 05:53:50;;;;;;;17.02;9.55;;;;;;;18.36;100.00;94926.03;5091982;28;20215;-62
2022/06/16 05:56:15;;;;;;;15.48;10.68;;;;;;;18.50;100.00;94924.50;5092032;28;20193;-65
2022/06/16 05:58:42;;;;;;;15.80;11.10;;;;;;;18.49;100.00;94926.28;5091820;28;20718;-61
2022/06/16 06:01:10;;;;;;;14.98;11.10;;;;;;;18.57;100.00;94917.69;5092359;28;20204;-63
2022/06/16 06:03:38;;;;;;;12.23;10.85;;;;;;;18.62;100.00;94918.00;5093699;28;20205;-65
2022/06/16 06:06:04;;;;;;;23.48;12.18;;;;;;;18.58;100.00;94919.31;5091783;28;20223;-61
2022/06/16 06:16:46;;;;;;;14.35;12.38;;;;;;;18.75;100.00;94892.44;5070816;28;20207;-64
2022/06/16 06:19:26;;;;;;;21.27;11.70;;;;;;;18.85;100.00;94911.03;5071513;28;20177;-62
2022/06/16 06:22:03;;;;;;;21.15;13.57;;;;;;;18.90;100.00;94909.56;5071441;28;20161;-64
2022/06/16 06:24:40;;;;;;;18.48;14.05;;;;;;;19.15;100.00;94917.84;5071305;28;20291;-62
2022/06/16 06:27:15;;;;;;;21.33;13.63;;;;;;;19.04;100.00;94918.28;5071326;28;20177;-62
2022/06/16 06:29:45;;;;;;;18.40;14.43;;;;;;;18.94;100.00;94913.38;5071607;28;20204;-62
2022/06/16 06:32:11;;;;;;;18.05;14.63;;;;;;;18.99;100.00;94905.09;5071244;28;20666;-63
2022/06/16 06:34:37;;;;;;;18.95;14.23;;;;;;;19.18;100.00;94915.75;5071435;28;20204;-62
2022/06/16 06:37:04;;;;;;;22.10;15.88;;;;;;;19.27;100.00;94912.09;5071332;28;20176;-61
2022/06/16 06:39:30;;;;;;;20.50;14.55;;;;;;;19.55;100.00;94917.50;5071256;28;20213;-65
2022/06/16 06:41:55;;;;;;;24.98;15.82;;;;;;;19.45;100.00;94914.38;5073736;28;20169;-65
2022/06/16 06:44:21;;;;;;;20.65;15.20;;;;;;;19.41;100.00;94918.28;5075143;28;20205;-63
2022/06/16 06:46:46;;;;;;;20.00;15.77;;;;;;;19.44;100.00;94917.91;5074935;28;20391;-63
2022/06/16 06:49:12;;;;;;;20.48;15.45;;;;;;;19.40;100.00;94915.88;5056745;28;20199;-60
2022/06/16 06:51:38;;;;;;;21.33;16.75;;;;;;;19.68;100.00;94924.59;5073666;28;20176;-63
2022/06/16 06:54:04;;;;;;;22.77;15.57;;;;;;;19.70;100.00;94920.06;5074788;28;20189;-63
2022/06/16 06:56:32;;;;;;;24.50;16.35;;;;;;;19.60;100.00;94907.44;5074838;28;20185;-63
2022/06/16 06:59:01;;;;;;;21.42;15.38;;;;;;;19.64;100.00;94916.41;5074757;28;20177;-60
2022/06/16 07:01:27;;;;;;;19.77;16.17;;;;;;;19.46;100.00;94912.59;5074519;28;20237;-61
2022/06/16 07:03:52;;;;;;;18.67;14.82;;;;;;;19.62;100.00;94915.78;5074493;28;20661;-61
2022/06/16 07:06:19;;;;;;;21.55;16.27;;;;;;;19.96;100.00;94935.88;5074537;28;20346;-61
2022/06/16 07:08:45;;;;;;;24.40;17.23;;;;;;;20.00;100.00;94927.59;5074739;28;20184;-64
2022/06/16 07:11:11;;;;;;;20.33;15.75;;;;;;;20.03;100.00;94924.66;5074309;28;20205;-65
2022/06/16 07:13:37;;;;;;;32.28;18.95;;;;;;;20.15;100.00;94921.59;5076655;28;20188;-66
2022/06/16 07:16:03;;;;;;;27.75;18.13;;;;;;;20.12;100.00;94917.59;5074974;28;20212;-65
2022/06/16 07:18:29;;;;;;;27.77;18.55;;;;;;;20.09;100.00;94933.47;5072708;28;20173;-65
2022/06/16 07:20:54;;;;;;;23.85;18.25;;;;;;;20.22;100.00;94927.69;5074124;28;20211;-61
2022/06/16 07:23:20;;;;;;;32.50;20.60;;;;;;;20.45;100.00;94938.66;5074377;28;20268;-60
2022/06/16 07:25:48;;;;;;;119.72;29.98;;;;;;;20.73;100.00;94940.34;5056348;28;20207;-61
2022/06/16 07:28:14;;;;;;;29.75;18.70;;;;;;;20.67;100.00;94942.84;5055811;28;20208;-65
2022/06/16 07:30:40;;;;;;;41.38;21.35;;;;;;;20.67;100.00;94935.91;5073693;28;20303;-66
2022/06/16 07:33:06;;;;;;;84.60;27.88;;;;;;;20.91;100.00;94961.38;5073958;28;20264;-66
2022/06/16 07:35:31;;;;;;;52.33;22.20;;;;;;;20.74;100.00;94933.38;5056173;28;20296;-64
2022/06/16 07:37:57;;;;;;;22.23;17.77;;;;;;;20.59;100.00;94930.84;5073860;28;20184;-64
2022/06/16 07:40:24;;;;;;;21.92;17.05;;;;;;;20.73;100.00;94942.91;5074297;28;20208;-65
2022/06/16 07:42:54;;;;;;;21.95;18.63;;;;;;;21.04;100.00;94945.22;5074085;28;20211;-65
2022/06/16 07:45:20;;;;;;;23.77;18.25;;;;;;;21.22;99.85;94976.59;5074280;28;20201;-65
2022/06/16 07:47:46;;;;;;;288.65;51.08;;;;;;;21.23;99.75;94960.09;5073875;28;20260;-64
2022/06/16 07:50:12;;;;;;;24.00;17.48;;;;;;;21.12;98.17;94975.31;5074626;28;20220;-65
2022/06/16 07:52:38;;;;;;;24.65;17.88;;;;;;;21.01;98.34;94955.88;5073880;28;20264;-64
2022/06/16 07:55:07;;;;;;;26.88;18.10;;;;;;;20.99;98.15;94959.66;5074292;28;20266;-61
2022/06/16 07:57:39;;;;;;;20.88;16.45;;;;;;;20.86;96.77;94970.69;5073702;28;20206;-62
2022/06/16 08:00:06;;;;;;;23.73;17.65;;;;;;;21.13;95.11;94987.28;5072378;28;20252;-64
2022/06/16 08:02:31;;;;;;;20.63;16.58;;;;;;;20.98;94.59;94974.38;5055919;28;20177;-65
2022/06/16 08:04:57;;;;;;;56.65;22.58;;;;;;;21.31;95.14;94972.88;5073793;28;20205;-63
2022/06/16 08:07:22;;;;;;;21.90;15.95;;;;;;;21.47;93.96;94992.53;5073355;28;20582;-64
2022/06/16 08:09:48;;;;;;;29.38;17.10;;;;;;;21.77;89.40;95046.47;5073766;28;20215;-59
2022/06/16 08:12:14;;;;;;;25.02;17.05;;;;;;;21.84;86.31;95049.16;5072164;28;20177;-61
2022/06/16 08:14:45;;;;;;;20.27;16.00;;;;;;;22.07;87.86;95008.25;5055434;28;20216;-60
2022/06/16 08:17:20;;;;;;;20.98;15.75;;;;;;;21.98;89.16;95000.84;5073348;28;20313;-60
2022/06/16 08:19:45;;;;;;;18.75;16.50;;;;;;;21.81;89.30;94990.00;5073205;28;20211;-60
2022/06/16 08:22:12;;;;;;;19.88;16.10;;;;;;;21.70;87.87;95012.00;5073109;28;20188;-61
2022/06/16 08:24:38;;;;;;;24.05;15.98;;;;;;;21.79;86.85;95020.41;5055117;28;20205;-61
2022/06/16 08:27:05;;;;;;;33.42;18.40;;;;;;;22.11;86.89;95008.69;5072051;28;20185;-64
2022/06/16 08:29:32;;;;;;;147.43;35.80;;;;;;;22.06;87.41;95003.28;5073294;28;20201;-64
2022/06/16 08:31:59;;;;;;;29.70;18.13;;;;;;;21.66;87.80;94956.41;5072886;28;20306;-64
2022/06/16 08:34:25;;;;;;;19.98;17.20;;;;;;;21.59;86.06;94991.00;5072883;23;20223;-64
2022/06/16 08:36:50;;;;;;;21.15;17.55;;;;;;;21.75;86.02;95001.84;5093033;28;20549;-64
2022/06/16 08:39:16;;;;;;;19.10;17.05;;;;;;;22.02;84.45;95023.56;5093399;28;20286;-60
2022/06/16 08:42:07;;;;;;;24.83;17.90;;;;;;;22.30;85.49;94998.41;5093267;28;20194;-59
2022/06/16 08:44:38;;;;;;;21.95;16.02;;;;;;;22.48;84.71;95008.25;5078282;28;20685;-59
2022/06/16 08:47:07;;;;;;;17.02;13.95;;;;;;;22.33;76.59;95116.41;5092944;28;20239;-59
2022/06/16 08:49:42;;;;;;;19.42;16.15;;;;;;;22.45;81.70;95024.19;5093339;28;20279;-59
2022/06/16 08:52:14;;;;;;;24.30;16.85;;;;;;;22.33;82.96;94994.63;5093079;28;20171;-60
2022/06/16 08:54:54;;;;;;;20.15;16.25;;;;;;;22.48;83.10;94993.50;5093320;28;20265;-60
2022/06/16 08:57:37;;;;;;;24.42;15.55;;;;;;;22.76;84.08;94984.84;5092822;28;20176;-64
2022/06/16 09:00:15;;;;;;;23.58;16.85;;;;;;;23.07;81.63;95027.38;5093206;28;20208;-61
2022/06/16 09:03:09;;;;;;;16.33;14.63;;;;;;;23.23;76.43;95104.06;5093691;28;20177;-59
2022/06/16 09:05:59;;;;;;;18.25;16.23;;;;;;;22.96;79.63;95027.16;5092384;28;20216;-61
2022/06/16 09:08:52;;;;;;;16.67;14.40;;;;;;;22.63;76.04;95094.47;5092545;28;20189;-64
2022/06/16 09:11:42;;;;;;;19.63;15.95;;;;;;;22.68;77.21;95055.81;5073011;28;20200;-64
2022/06/16 09:17:36;;;;;;;14.77;13.18;;;;;;;23.00;76.21;95051.72;5092663;28;20650;-65
2022/06/16 09:20:16;;;;;;;15.07;13.48;;;;;;;22.87;71.81;95132.06;5073752;28;20306;-61
2022/06/16 09:23:00;;;;;;;17.77;14.60;;;;;;;23.04;72.79;95103.03;5074050;28;20188;-60
2022/06/16 09:26:05;;;;;;;14.07;12.57;;;;;;;23.27;71.22;95113.84;5092138;28;20204;-60
2022/06/16 09:28:37;;;;;;;14.98;12.50;;;;;;;23.83;70.03;95142.13;5092477;28;20646;-60
2022/06/16 09:31:09;;;;;;;14.43;12.07;;;;;;;23.69;69.80;95128.34;5092171;28;20249;-59
2022/06/16 09:33:40;;;;;;;13.95;12.10;;;;;;;23.54;68.49;95114.72;5092325;28;20192;-60
2022/06/16 09:36:10;;;;;;;11.70;10.45;;;;;;;23.47;68.05;95123.50;5092199;28;20257;-59
2022/06/16 09:38:41;;;;;;;14.35;11.98;;;;;;;23.50;69.78;95082.38;5092477;28;20184;-61
2022/06/16 09:44:13;;;;;;;12.63;11.27;;;;;;;23.30;64.52;95143.81;5091818;28;20223;-62
2022/06/16 09:46:46;;;;;;;14.63;12.77;;;;;;;23.40;67.37;95074.19;5091891;28;20163;-61
2022/06/16 09:49:18;;;;;;;15.93;13.43;;;;;;;23.38;70.87;95000.91;5090909;28;20184;-61
2022/06/16 09:51:53;;;;;;;14.38;11.23;;;;;;;23.47;74.05;94950.41;5091577;28;20168;-61
2022/06/16 09:54:32;;;;;;;13.35;10.68;;;;;;;23.31;72.84;94984.53;5092125;28;20184;-61
2022/06/16 09:57:06;;;;;;;11.07;9.95;;;;;;;23.12;69.71;95042.38;5091531;28;20176;-61
2022/06/16 09:59:40;;;;;;;14.05;9.77;;;;;;;23.30;66.43;95104.88;5091587;28;20634;-64
2022/06/16 10:02:21;;;;;;;13.00;10.35;;;;;;;23.71;65.35;95115.16;5090921;28;20169;-65
2022/06/16 10:04:54;;;;;;;14.45;10.45;;;;;;;24.06;62.50;95177.13;5091649;28;20195;-65
2022/06/16 10:07:34;;;;;;;13.23;11.55;;;;;;;24.27;65.14;95111.16;5073573;28;20560;-66
2022/06/16 10:10:08;;;;;;;32.13;14.38;;;;;;;24.61;63.61;95133.47;5091962;28;20200;-59
2022/06/16 10:12:56;;;;;;;10.73;9.63;;;;;;;24.96;60.04;95182.47;5091746;28;20254;-59
2022/06/16 10:15:31;;;;;;;14.00;10.48;;;;;;;25.15;60.76;95143.56;5091510;28;20200;-62
2022/06/16 10:17:58;;;;;;;11.98;10.52;;;;;;;25.11;58.80;95171.78;5095763;28;20180;-64
2022/06/16 10:20:24;;;;;;;12.40;10.23;;;;;;;25.07;59.79;95143.78;5096671;28;20570;-66
2022/06/16 10:22:58;;;;;;;13.20;11.23;;;;;;;24.56;61.68;95066.50;5080032;28;20184;-64
2022/06/16 10:25:28;;;;;;;16.20;11.50;;;;;;;24.87;63.15;95051.00;5095493;28;20586;-60
2022/06/16 10:28:00;;;;;;;15.50;11.98;;;;;;;24.49;64.04;95034.50;5095492;28;20191;-61
2022/06/16 10:30:33;;;;;;;12.75;10.40;;;;;;;24.57;61.82;95086.28;5095361;28;20200;-61
2022/06/16 10:33:18;;;;;;;12.00;10.70;;;;;;;24.31;61.75;95085.56;5095518;28;20660;-63
2022/06/16 10:35:58;;;;;;;13.23;10.98;;;;;;;24.39;60.84;95108.72;5095507;28;20337;-65
2022/06/16 10:38:32;;;;;;;11.32;10.23;;;;;;;24.50;60.79;95082.13;5095688;28;20696;-61
2022/06/16 10:41:01;;;;;;;13.65;10.65;;;;;;;24.39;61.44;95074.94;5095189;28;20216;-63
2022/06/16 10:43:28;;;;;;;11.27;9.85;;;;;;;24.81;59.30;95119.44;5077120;28;20181;-61
2022/06/16 10:46:11;;;;;;;10.55;9.45;;;;;;;24.92;60.42;95072.00;5095418;28;20333;-63
2022/06/16 10:48:39;;;;;;;10.90;9.52;;;;;;;25.42;56.96;95158.84;5076982;28;20304;-64
2022/06/16 10:51:20;;;;;;;12.73;10.00;;;;;;;25.38;55.67;95177.66;5094885;28;20196;-64
2022/06/16 10:54:06;;;;;;;11.13;9.93;;;;;;;25.61;58.62;95099.84;5094406;28;20254;-63
2022/06/16 10:56:32;;;;;;;15.85;10.20;;;;;;;26.10;59.35;95086.06;5102651;22;20234;-66
2022/06/16 10:59:03;;;;;;;10.68;9.60;;;;;;;26.46;57.16;95151.31;5095253;28;20694;-61
2022/06/16 11:02:14;;;;;;;9.80;8.88;;;;;;;26.12;52.01;95249.03;5074865;28;20570;-63
2022/06/16 11:04:43;;;;;;;9.98;8.98;;;;;;;26.17;51.63;95227.56;5062150;28;20295;-60
2022/06/16 11:07:17;;;;;;;15.82;14.20;;;;;;;26.54;55.34;95133.53;5074493;28;20208;-60
2022/06/16 11:09:44;;;;;;;13.73;11.35;;;;;;;26.31;55.49;95117.75;5074923;28;20648;-63
2022/06/16 11:12:23;;;;;;;10.90;9.80;;;;;;;25.90;53.14;95166.97;5074391;28;20176;-64
2022/06/16 11:14:54;;;;;;;11.98;10.23;;;;;;;25.46;54.99;95120.16;5074627;28;20236;-64
2022/06/16 11:17:21;;;;;;;13.27;9.77;;;;;;;25.69;54.89;95116.00;5074592;28;20222;-63
2022/06/16 11:20:10;;;;;;;11.07;9.98;;;;;;;26.21;53.08;95159.16;5074906;28;20269;-61
2022/06/16 11:22:40;;;;;;;11.25;10.15;;;;;;;26.72;53.47;95153.69;5016770;28;20193;-60
2022/06/16 11:25:23;;;;;;;11.18;9.85;;;;;;;26.92;50.28;95221.34;5056449;28;20205;-65
2022/06/16 11:27:56;;;;;;;12.15;9.23;;;;;;;27.15;50.53;95192.78;5073910;28;20536;-60
2022/06/16 11:30:36;;;;;;;10.95;9.85;;;;;;;27.43;52.14;95154.66;5074141;28;20206;-59
2022/06/16 11:33:04;;;;;;;10.05;9.15;;;;;;;27.55;50.60;95190.50;5074151;28;20199;-63
2022/06/16 11:35:50;;;;;;;11.20;9.32;;;;;;;27.30;48.44;95232.38;5073964;28;20212;-59
2022/06/16 11:38:21;;;;;;;12.13;10.20;;;;;;;27.82;49.42;95204.78;5074263;28;20168;-60
2022/06/16 11:40:56;;;;;;;10.55;9.48;;;;;;;27.79;48.11;95213.88;5074091;28;20674;-64
2022/06/16 11:43:43;;;;;;;13.35;11.18;;;;;;;28.42;49.23;95187.22;5057103;28;20230;-59
2022/06/16 11:46:24;;;;;;;10.05;9.02;;;;;;;28.63;46.39;95255.53;5074251;28;20686;-64
2022/06/16 11:48:55;;;;;;;11.15;10.05;;;;;;;28.78;45.85;95255.09;5074216;28;20189;-64
2022/06/16 11:51:41;;;;;;;13.98;10.48;;;;;;;29.09;46.69;95241.63;5073784;28;20197;-59
2022/06/16 11:54:25;;;;;;;16.27;9.85;;;;;;;28.92;47.94;95185.75;5073970;28;20189;-59
2022/06/16 11:57:10;;;;;;;10.77;9.77;;;;;;;29.37;46.87;95226.00;5073596;28;20181;-59